sensor_id;sensor_type;location;lat;lon;timestamp;temperature;humidity
1359;DHT22;673;48.098;14.422;2023-08-08T00:01:29;11.30;99.90
1359;DHT22;673;48.098;14.422;2023-08-08T00:03:56;11.40;99.90
1359;DHT22;673;48.098;14.422;2023-08-08T00:06:23;11.40;99.90
1359;DHT22;673;48.098;14.422;2023-08-08T00:08:51;11.40;99.90
1359;DHT22;673;48.098;14.422;2023-08-08T00:11:18;11.30;99.90
1359;DHT22;673;48.098;14.422;2023-08-08T00:13:45;11.30;99.90
1359;DHT22;673;48.098;14.422;2023-08-08T00:16:12;11.50;99.90
1359;DHT22;673;48.098;14.422;2023-08-08T00:18:39;11.40;99.90
1359;DHT22;673;48.098;14.422;2023-08-08T00:21:06;11.30;99.90
1359;DHT22;673;48.098;14.422;2023-08-08T00:23:33;11.20;99.90
1359;DHT22;673;48.098;14.422;2023-08-08T00:26:01;11.10;99.90
1359;DHT22;673;48.098;14.422;2023-08-08T00:28:28;11.10;99.90
1359;DHT22;673;48.098;14.422;2023-08-08T00:30:55;11.10;99.90
1359;DHT22;673;48.098;14.422;2023-08-08T00:33:22;11.00;99.90
1359;DHT22;673;48.098;14.422;2023-08-08T00:35:49;10.90;99.90
1359;DHT22;673;48.098;14.422;2023-08-08T00:38:16;10.90;99.90
1359;DHT22;673;48.098;14.422;2023-08-08T00:40:44;10.90;99.90
1359;DHT22;673;48.098;14.422;2023-08-08T00:43:12;10.90;99.90
1359;DHT22;673;48.098;14.422;2023-08-08T00:45:42;10.80;99.90
1359;DHT22;673;48.098;14.422;2023-08-08T00:48:09;10.80;99.90
1359;DHT22;673;48.098;14.422;2023-08-08T00:50:37;10.80;99.90
1359;DHT22;673;48.098;14.422;2023-08-08T00:53:04;10.80;99.90
1359;DHT22;673;48.098;14.422;2023-08-08T00:55:32;10.80;99.90
1359;DHT22;673;48.098;14.422;2023-08-08T00:57:59;10.80;99.90
1359;DHT22;673;48.098;14.422;2023-08-08T01:00:28;10.80;99.90
1359;DHT22;673;48.098;14.422;2023-08-08T01:02:55;10.80;99.90
1359;DHT22;673;48.098;14.422;2023-08-08T01:05:22;10.80;99.90
1359;DHT22;673;48.098;14.422;2023-08-08T01:07:54;10.80;99.90
1359;DHT22;673;48.098;14.422;2023-08-08T01:10:25;11.00;99.90
1359;DHT22;673;48.098;14.422;2023-08-08T01:12:55;11.00;99.90
1359;DHT22;673;48.098;14.422;2023-08-08T01:15:25;11.00;99.90
1359;DHT22;673;48.098;14.422;2023-08-08T01:17:54;10.90;99.90
1359;DHT22;673;48.098;14.422;2023-08-08T01:20:22;11.00;99.90
1359;DHT22;673;48.098;14.422;2023-08-08T01:22:56;11.00;99.90
1359;DHT22;673;48.098;14.422;2023-08-08T01:25:26;11.00;99.90
1359;DHT22;673;48.098;14.422;2023-08-08T01:27:53;11.00;99.90
1359;DHT22;673;48.098;14.422;2023-08-08T01:30:20;11.00;99.90
1359;DHT22;673;48.098;14.422;2023-08-08T01:32:47;10.90;99.90
1359;DHT22;673;48.098;14.422;2023-08-08T01:35:14;10.90;99.90
1359;DHT22;673;48.098;14.422;2023-08-08T01:37:46;10.80;99.90
1359;DHT22;673;48.098;14.422;2023-08-08T01:40:17;10.80;99.90
1359;DHT22;673;48.098;14.422;2023-08-08T01:42:47;10.80;99.90
1359;DHT22;673;48.098;14.422;2023-08-08T01:45:15;10.80;99.90
1359;DHT22;673;48.098;14.422;2023-08-08T01:47:43;10.70;99.90
1359;DHT22;673;48.098;14.422;2023-08-08T01:50:10;10.80;99.90
1359;DHT22;673;48.098;14.422;2023-08-08T01:52:37;10.80;99.90
1359;DHT22;673;48.098;14.422;2023-08-08T01:55:05;10.80;99.90
1359;DHT22;673;48.098;14.422;2023-08-08T01:57:32;10.80;99.90
1359;DHT22;673;48.098;14.422;2023-08-08T02:00:00;10.70;99.90
1359;DHT22;673;48.098;14.422;2023-08-08T02:02:29;10.60;99.90
1359;DHT22;673;48.098;14.422;2023-08-08T02:04:56;10.60;99.90
1359;DHT22;673;48.098;14.422;2023-08-08T02:07:23;10.60;99.90
1359;DHT22;673;48.098;14.422;2023-08-08T02:09:50;10.50;99.90
1359;DHT22;673;48.098;14.422;2023-08-08T02:12:17;10.50;99.90
1359;DHT22;673;48.098;14.422;2023-08-08T02:14:44;10.40;99.90
1359;DHT22;673;48.098;14.422;2023-08-08T02:17:12;10.40;99.90
1359;DHT22;673;48.098;14.422;2023-08-08T02:19:39;10.30;99.90
1359;DHT22;673;48.098;14.422;2023-08-08T02:22:06;10.40;99.90
1359;DHT22;673;48.098;14.422;2023-08-08T02:24:33;10.40;99.90
1359;DHT22;673;48.098;14.422;2023-08-08T02:27:00;10.40;99.90
1359;DHT22;673;48.098;14.422;2023-08-08T02:29:27;10.40;99.90
1359;DHT22;673;48.098;14.422;2023-08-08T02:31:54;10.50;99.90
1359;DHT22;673;48.098;14.422;2023-08-08T02:34:22;10.50;99.90
1359;DHT22;673;48.098;14.422;2023-08-08T02:36:49;10.50;99.90
1359;DHT22;673;48.098;14.422;2023-08-08T02:39:16;10.70;99.90
1359;DHT22;673;48.098;14.422;2023-08-08T02:41:43;10.80;99.90
1359;DHT22;673;48.098;14.422;2023-08-08T02:44:10;10.90;99.90
1359;DHT22;673;48.098;14.422;2023-08-08T02:46:37;10.90;99.90
1359;DHT22;673;48.098;14.422;2023-08-08T02:49:04;10.90;99.90
1359;DHT22;673;48.098;14.422;2023-08-08T02:51:33;10.90;99.90
1359;DHT22;673;48.098;14.422;2023-08-08T02:53:59;10.90;99.90
1359;DHT22;673;48.098;14.422;2023-08-08T02:56:26;10.80;99.90
1359;DHT22;673;48.098;14.422;2023-08-08T02:58:53;10.80;99.90
1359;DHT22;673;48.098;14.422;2023-08-08T03:01:20;10.80;99.90
1359;DHT22;673;48.098;14.422;2023-08-08T03:03:48;10.80;99.90
1359;DHT22;673;48.098;14.422;2023-08-08T03:06:14;10.90;99.90
1359;DHT22;673;48.098;14.422;2023-08-08T03:08:43;10.90;99.90
1359;DHT22;673;48.098;14.422;2023-08-08T03:11:10;10.80;99.90
1359;DHT22;673;48.098;14.422;2023-08-08T03:13:37;10.80;99.90
1359;DHT22;673;48.098;14.422;2023-08-08T03:16:04;10.80;99.90
1359;DHT22;673;48.098;14.422;2023-08-08T03:18:30;10.80;99.90
1359;DHT22;673;48.098;14.422;2023-08-08T03:20:57;10.80;99.90
1359;DHT22;673;48.098;14.422;2023-08-08T03:23:24;10.80;99.90
1359;DHT22;673;48.098;14.422;2023-08-08T03:25:53;10.70;99.90
1359;DHT22;673;48.098;14.422;2023-08-08T03:28:19;10.80;99.90
1359;DHT22;673;48.098;14.422;2023-08-08T03:30:46;10.70;99.90
1359;DHT22;673;48.098;14.422;2023-08-08T03:33:13;10.80;99.90
1359;DHT22;673;48.098;14.422;2023-08-08T03:35:40;10.80;99.90
1359;DHT22;673;48.098;14.422;2023-08-08T03:38:09;10.80;99.90
1359;DHT22;673;48.098;14.422;2023-08-08T03:40:36;10.80;99.90
1359;DHT22;673;48.098;14.422;2023-08-08T03:43:04;10.80;99.90
1359;DHT22;673;48.098;14.422;2023-08-08T03:45:31;10.70;99.90
1359;DHT22;673;48.098;14.422;2023-08-08T03:47:58;10.70;99.90
1359;DHT22;673;48.098;14.422;2023-08-08T03:50:25;10.70;99.90
1359;DHT22;673;48.098;14.422;2023-08-08T03:52:52;10.70;99.90
1359;DHT22;673;48.098;14.422;2023-08-08T03:55:19;10.60;99.90
1359;DHT22;673;48.098;14.422;2023-08-08T03:57:46;10.60;99.90
1359;DHT22;673;48.098;14.422;2023-08-08T04:00:17;10.50;99.90
1359;DHT22;673;48.098;14.422;2023-08-08T04:02:44;10.50;99.90
1359;DHT22;673;48.098;14.422;2023-08-08T04:05:11;10.50;99.90
1359;DHT22;673;48.098;14.422;2023-08-08T04:07:38;10.40;99.90
1359;DHT22;673;48.098;14.422;2023-08-08T04:10:06;10.50;99.90
1359;DHT22;673;48.098;14.422;2023-08-08T04:12:33;10.50;99.90
1359;DHT22;673;48.098;14.422;2023-08-08T04:15:00;10.30;99.90
1359;DHT22;673;48.098;14.422;2023-08-08T04:17:28;10.30;99.90
1359;DHT22;673;48.098;14.422;2023-08-08T04:19:55;10.20;99.90
1359;DHT22;673;48.098;14.422;2023-08-08T04:22:22;10.20;99.90
1359;DHT22;673;48.098;14.422;2023-08-08T04:24:49;10.20;99.90
1359;DHT22;673;48.098;14.422;2023-08-08T04:27:16;10.30;99.90
1359;DHT22;673;48.098;14.422;2023-08-08T04:29:43;10.30;99.90
1359;DHT22;673;48.098;14.422;2023-08-08T04:32:10;10.40;99.90
1359;DHT22;673;48.098;14.422;2023-08-08T04:34:39;10.50;99.90
1359;DHT22;673;48.098;14.422;2023-08-08T04:37:06;10.60;99.90
1359;DHT22;673;48.098;14.422;2023-08-08T04:39:32;10.80;99.90
1359;DHT22;673;48.098;14.422;2023-08-08T04:41:59;10.90;99.90
1359;DHT22;673;48.098;14.422;2023-08-08T04:44:26;10.90;99.90
1359;DHT22;673;48.098;14.422;2023-08-08T04:46:53;10.90;99.90
1359;DHT22;673;48.098;14.422;2023-08-08T04:49:20;10.80;99.90
1359;DHT22;673;48.098;14.422;2023-08-08T04:51:49;10.90;99.90
1359;DHT22;673;48.098;14.422;2023-08-08T04:54:15;11.00;99.90
1359;DHT22;673;48.098;14.422;2023-08-08T04:56:43;11.00;99.90
1359;DHT22;673;48.098;14.422;2023-08-08T04:59:09;11.10;99.90
1359;DHT22;673;48.098;14.422;2023-08-08T05:01:36;11.20;99.90
1359;DHT22;673;48.098;14.422;2023-08-08T05:04:03;11.20;99.90
1359;DHT22;673;48.098;14.422;2023-08-08T05:06:30;11.30;99.90
1359;DHT22;673;48.098;14.422;2023-08-08T05:08:59;11.40;99.90
1359;DHT22;673;48.098;14.422;2023-08-08T05:11:26;11.60;99.90
1359;DHT22;673;48.098;14.422;2023-08-08T05:13:53;11.70;99.90
1359;DHT22;673;48.098;14.422;2023-08-08T05:16:20;11.90;99.90
1359;DHT22;673;48.098;14.422;2023-08-08T05:18:48;12.00;99.90
1359;DHT22;673;48.098;14.422;2023-08-08T05:21:15;12.00;99.90
1359;DHT22;673;48.098;14.422;2023-08-08T05:23:42;12.20;99.90
1359;DHT22;673;48.098;14.422;2023-08-08T05:26:10;12.30;99.90
1359;DHT22;673;48.098;14.422;2023-08-08T05:28:37;12.40;99.90
1359;DHT22;673;48.098;14.422;2023-08-08T05:31:04;12.50;99.90
1359;DHT22;673;48.098;14.422;2023-08-08T05:33:31;12.70;99.90
1359;DHT22;673;48.098;14.422;2023-08-08T05:35:58;12.80;99.90
1359;DHT22;673;48.098;14.422;2023-08-08T05:38:25;12.90;99.90
1359;DHT22;673;48.098;14.422;2023-08-08T05:40:53;13.10;99.90
1359;DHT22;673;48.098;14.422;2023-08-08T05:43:21;13.20;99.90
1359;DHT22;673;48.098;14.422;2023-08-08T05:45:48;13.40;99.90
1359;DHT22;673;48.098;14.422;2023-08-08T05:48:15;13.50;99.90
1359;DHT22;673;48.098;14.422;2023-08-08T05:50:42;13.30;99.90
1359;DHT22;673;48.098;14.422;2023-08-08T05:53:09;13.60;99.90
1359;DHT22;673;48.098;14.422;2023-08-08T05:55:36;13.70;99.90
1359;DHT22;673;48.098;14.422;2023-08-08T05:58:03;13.60;99.90
1359;DHT22;673;48.098;14.422;2023-08-08T06:00:32;13.50;99.90
1359;DHT22;673;48.098;14.422;2023-08-08T06:02:59;13.50;99.90
1359;DHT22;673;48.098;14.422;2023-08-08T06:05:26;13.60;99.90
1359;DHT22;673;48.098;14.422;2023-08-08T06:07:53;13.50;99.90
1359;DHT22;673;48.098;14.422;2023-08-08T06:10:22;13.60;99.90
1359;DHT22;673;48.098;14.422;2023-08-08T06:12:49;13.50;99.90
1359;DHT22;673;48.098;14.422;2023-08-08T06:15:16;13.50;99.90
1359;DHT22;673;48.098;14.422;2023-08-08T06:17:44;13.50;99.90
1359;DHT22;673;48.098;14.422;2023-08-08T06:20:11;13.60;99.90
1359;DHT22;673;48.098;14.422;2023-08-08T06:22:38;13.70;99.90
1359;DHT22;673;48.098;14.422;2023-08-08T06:25:06;13.90;99.90
1359;DHT22;673;48.098;14.422;2023-08-08T06:27:33;14.20;99.90
1359;DHT22;673;48.098;14.422;2023-08-08T06:30:00;14.50;99.90
1359;DHT22;673;48.098;14.422;2023-08-08T06:32:28;14.80;99.90
1359;DHT22;673;48.098;14.422;2023-08-08T06:34:56;14.90;99.90
1359;DHT22;673;48.098;14.422;2023-08-08T06:37:24;15.10;99.90
1359;DHT22;673;48.098;14.422;2023-08-08T06:39:51;15.10;99.90
1359;DHT22;673;48.098;14.422;2023-08-08T06:42:18;15.10;99.90
1359;DHT22;673;48.098;14.422;2023-08-08T06:44:45;15.30;99.90
1359;DHT22;673;48.098;14.422;2023-08-08T06:47:12;15.20;99.90
1359;DHT22;673;48.098;14.422;2023-08-08T06:49:39;14.90;99.90
1359;DHT22;673;48.098;14.422;2023-08-08T06:52:07;15.10;99.90
1359;DHT22;673;48.098;14.422;2023-08-08T06:54:34;14.80;99.90
1359;DHT22;673;48.098;14.422;2023-08-08T06:57:01;15.00;99.90
1359;DHT22;673;48.098;14.422;2023-08-08T06:59:28;15.30;99.90
1359;DHT22;673;48.098;14.422;2023-08-08T07:01:55;15.50;99.90
1359;DHT22;673;48.098;14.422;2023-08-08T07:04:23;15.40;99.90
1359;DHT22;673;48.098;14.422;2023-08-08T07:06:50;15.50;99.90
1359;DHT22;673;48.098;14.422;2023-08-08T07:09:19;15.80;99.90
1359;DHT22;673;48.098;14.422;2023-08-08T07:11:46;16.30;99.90
1359;DHT22;673;48.098;14.422;2023-08-08T07:14:13;16.30;99.90
1359;DHT22;673;48.098;14.422;2023-08-08T07:16:40;16.20;99.90
1359;DHT22;673;48.098;14.422;2023-08-08T07:19:07;16.10;99.90
1359;DHT22;673;48.098;14.422;2023-08-08T07:21:34;16.30;99.90
1359;DHT22;673;48.098;14.422;2023-08-08T07:24:02;16.60;99.90
1359;DHT22;673;48.098;14.422;2023-08-08T07:26:30;16.80;99.90
1359;DHT22;673;48.098;14.422;2023-08-08T07:28:57;16.90;99.90
1359;DHT22;673;48.098;14.422;2023-08-08T07:31:24;16.60;99.90
1359;DHT22;673;48.098;14.422;2023-08-08T07:33:51;17.10;99.90
1359;DHT22;673;48.098;14.422;2023-08-08T07:36:18;17.00;99.90
1359;DHT22;673;48.098;14.422;2023-08-08T07:38:45;17.10;99.90
1359;DHT22;673;48.098;14.422;2023-08-08T07:41:12;17.20;99.90
1359;DHT22;673;48.098;14.422;2023-08-08T07:43:40;17.20;99.90
1359;DHT22;673;48.098;14.422;2023-08-08T07:46:07;17.10;99.90
1359;DHT22;673;48.098;14.422;2023-08-08T07:48:34;17.00;99.90
1359;DHT22;673;48.098;14.422;2023-08-08T07:51:01;17.00;99.90
1359;DHT22;673;48.098;14.422;2023-08-08T07:53:28;17.30;99.90
1359;DHT22;673;48.098;14.422;2023-08-08T07:55:55;17.40;99.90
1359;DHT22;673;48.098;14.422;2023-08-08T07:58:22;17.60;99.90
1359;DHT22;673;48.098;14.422;2023-08-08T08:00:53;17.70;99.90
1359;DHT22;673;48.098;14.422;2023-08-08T08:03:20;17.80;99.90
1359;DHT22;673;48.098;14.422;2023-08-08T08:05:47;17.70;99.90
1359;DHT22;673;48.098;14.422;2023-08-08T08:08:14;17.60;99.90
1359;DHT22;673;48.098;14.422;2023-08-08T08:10:41;17.90;99.90
1359;DHT22;673;48.098;14.422;2023-08-08T08:13:08;18.10;99.90
1359;DHT22;673;48.098;14.422;2023-08-08T08:15:36;18.20;99.90
1359;DHT22;673;48.098;14.422;2023-08-08T08:18:04;18.20;99.90
1359;DHT22;673;48.098;14.422;2023-08-08T08:20:31;18.50;99.90
1359;DHT22;673;48.098;14.422;2023-08-08T08:22:59;18.70;99.90
1359;DHT22;673;48.098;14.422;2023-08-08T08:25:26;18.70;99.90
1359;DHT22;673;48.098;14.422;2023-08-08T08:27:53;18.90;99.90
1359;DHT22;673;48.098;14.422;2023-08-08T08:30:19;18.90;99.90
1359;DHT22;673;48.098;14.422;2023-08-08T08:32:48;18.80;99.90
1359;DHT22;673;48.098;14.422;2023-08-08T08:35:17;18.90;99.90
1359;DHT22;673;48.098;14.422;2023-08-08T08:37:44;18.80;99.90
1359;DHT22;673;48.098;14.422;2023-08-08T08:40:11;18.80;99.90
1359;DHT22;673;48.098;14.422;2023-08-08T08:42:40;18.90;99.90
1359;DHT22;673;48.098;14.422;2023-08-08T08:45:09;18.80;99.90
1359;DHT22;673;48.098;14.422;2023-08-08T08:47:37;18.80;99.90
1359;DHT22;673;48.098;14.422;2023-08-08T08:50:07;19.20;99.90
1359;DHT22;673;48.098;14.422;2023-08-08T08:52:36;19.10;99.90
1359;DHT22;673;48.098;14.422;2023-08-08T08:55:04;18.90;99.90
1359;DHT22;673;48.098;14.422;2023-08-08T08:57:31;18.60;99.90
1359;DHT22;673;48.098;14.422;2023-08-08T08:59:59;18.50;99.90
1359;DHT22;673;48.098;14.422;2023-08-08T09:02:26;18.70;99.90
1359;DHT22;673;48.098;14.422;2023-08-08T09:04:53;19.00;99.70
1359;DHT22;673;48.098;14.422;2023-08-08T09:07:21;18.90;99.20
1359;DHT22;673;48.098;14.422;2023-08-08T09:09:52;19.00;99.90
1359;DHT22;673;48.098;14.422;2023-08-08T09:12:19;19.40;99.00
1359;DHT22;673;48.098;14.422;2023-08-08T09:14:47;19.60;98.20
1359;DHT22;673;48.098;14.422;2023-08-08T09:17:16;20.00;98.60
1359;DHT22;673;48.098;14.422;2023-08-08T09:19:43;20.00;98.90
1359;DHT22;673;48.098;14.422;2023-08-08T09:22:11;20.00;97.50
1359;DHT22;673;48.098;14.422;2023-08-08T09:24:39;19.80;97.60
1359;DHT22;673;48.098;14.422;2023-08-08T09:27:08;19.80;95.50
1359;DHT22;673;48.098;14.422;2023-08-08T09:29:35;20.10;97.70
1359;DHT22;673;48.098;14.422;2023-08-08T09:32:03;20.20;96.60
1359;DHT22;673;48.098;14.422;2023-08-08T09:34:30;20.10;96.60
1359;DHT22;673;48.098;14.422;2023-08-08T09:36:58;20.00;96.80
1359;DHT22;673;48.098;14.422;2023-08-08T09:39:25;19.80;98.00
1359;DHT22;673;48.098;14.422;2023-08-08T09:41:52;19.70;97.30
1359;DHT22;673;48.098;14.422;2023-08-08T09:44:24;20.00;95.00
1359;DHT22;673;48.098;14.422;2023-08-08T09:46:55;19.90;96.20
1359;DHT22;673;48.098;14.422;2023-08-08T09:49:22;19.90;97.20
1359;DHT22;673;48.098;14.422;2023-08-08T09:51:49;20.00;97.50
1359;DHT22;673;48.098;14.422;2023-08-08T09:54:17;19.70;96.50
1359;DHT22;673;48.098;14.422;2023-08-08T09:56:44;19.90;96.90
1359;DHT22;673;48.098;14.422;2023-08-08T09:59:11;20.10;97.40
1359;DHT22;673;48.098;14.422;2023-08-08T10:01:40;20.40;95.90
1359;DHT22;673;48.098;14.422;2023-08-08T10:04:09;20.50;92.00
1359;DHT22;673;48.098;14.422;2023-08-08T10:06:36;20.30;92.40
1359;DHT22;673;48.098;14.422;2023-08-08T10:09:03;20.70;94.80
1359;DHT22;673;48.098;14.422;2023-08-08T10:11:32;20.90;92.90
1359;DHT22;673;48.098;14.422;2023-08-08T10:14:02;20.80;91.50
1359;DHT22;673;48.098;14.422;2023-08-08T10:16:32;21.10;93.30
1359;DHT22;673;48.098;14.422;2023-08-08T10:19:03;21.60;93.70
1359;DHT22;673;48.098;14.422;2023-08-08T10:21:33;21.20;87.40
1359;DHT22;673;48.098;14.422;2023-08-08T10:24:04;21.30;92.20
1359;DHT22;673;48.098;14.422;2023-08-08T10:26:32;21.30;84.50
1359;DHT22;673;48.098;14.422;2023-08-08T10:29:00;21.20;88.00
1359;DHT22;673;48.098;14.422;2023-08-08T10:31:32;21.30;86.00
1359;DHT22;673;48.098;14.422;2023-08-08T10:34:05;20.70;87.00
1359;DHT22;673;48.098;14.422;2023-08-08T10:36:49;20.20;87.90
1359;DHT22;673;48.098;14.422;2023-08-08T10:39:16;19.90;89.60
1359;DHT22;673;48.098;14.422;2023-08-08T10:41:45;19.40;89.80
1359;DHT22;673;48.098;14.422;2023-08-08T10:44:13;20.00;92.30
1359;DHT22;673;48.098;14.422;2023-08-08T10:46:41;20.10;90.80
1359;DHT22;673;48.098;14.422;2023-08-08T10:49:12;19.90;88.30
1359;DHT22;673;48.098;14.422;2023-08-08T10:51:41;20.20;88.60
1359;DHT22;673;48.098;14.422;2023-08-08T10:54:13;20.30;88.00
1359;DHT22;673;48.098;14.422;2023-08-08T10:56:41;20.70;87.30
1359;DHT22;673;48.098;14.422;2023-08-08T10:59:14;20.50;86.00
1359;DHT22;673;48.098;14.422;2023-08-08T11:01:44;20.40;86.50
1359;DHT22;673;48.098;14.422;2023-08-08T11:04:13;20.10;80.90
1359;DHT22;673;48.098;14.422;2023-08-08T11:06:40;20.00;87.70
1359;DHT22;673;48.098;14.422;2023-08-08T11:09:09;20.50;89.80
1359;DHT22;673;48.098;14.422;2023-08-08T11:11:37;21.10;88.30
1359;DHT22;673;48.098;14.422;2023-08-08T11:14:12;21.40;85.30
1359;DHT22;673;48.098;14.422;2023-08-08T11:16:39;21.20;79.50
1359;DHT22;673;48.098;14.422;2023-08-08T11:19:06;21.30;78.80
1359;DHT22;673;48.098;14.422;2023-08-08T11:21:36;21.40;80.40
1359;DHT22;673;48.098;14.422;2023-08-08T11:24:04;21.50;82.50
1359;DHT22;673;48.098;14.422;2023-08-08T11:26:32;21.90;83.60
1359;DHT22;673;48.098;14.422;2023-08-08T11:28:59;22.60;80.10
1359;DHT22;673;48.098;14.422;2023-08-08T11:31:27;22.80;81.00
1359;DHT22;673;48.098;14.422;2023-08-08T11:33:55;22.90;78.70
1359;DHT22;673;48.098;14.422;2023-08-08T11:36:22;22.70;75.30
1359;DHT22;673;48.098;14.422;2023-08-08T11:38:51;22.60;77.90
1359;DHT22;673;48.098;14.422;2023-08-08T11:41:22;22.20;74.00
1359;DHT22;673;48.098;14.422;2023-08-08T11:43:51;21.90;69.70
1359;DHT22;673;48.098;14.422;2023-08-08T11:46:22;21.70;75.70
1359;DHT22;673;48.098;14.422;2023-08-08T11:48:49;21.50;80.70
1359;DHT22;673;48.098;14.422;2023-08-08T11:51:16;21.50;75.80
1359;DHT22;673;48.098;14.422;2023-08-08T11:53:51;21.70;77.40
1359;DHT22;673;48.098;14.422;2023-08-08T11:56:20;22.00;80.10
1359;DHT22;673;48.098;14.422;2023-08-08T11:58:48;22.40;81.40
1359;DHT22;673;48.098;14.422;2023-08-08T12:01:16;22.70;73.40
1359;DHT22;673;48.098;14.422;2023-08-08T12:03:43;22.80;69.50
1359;DHT22;673;48.098;14.422;2023-08-08T12:06:13;22.80;71.90
1359;DHT22;673;48.098;14.422;2023-08-08T12:08:42;22.50;68.80
1359;DHT22;673;48.098;14.422;2023-08-08T12:11:11;22.70;70.30
1359;DHT22;673;48.098;14.422;2023-08-08T12:13:41;23.10;73.90
1359;DHT22;673;48.098;14.422;2023-08-08T12:16:09;23.40;77.30
1359;DHT22;673;48.098;14.422;2023-08-08T12:18:37;22.90;65.00
1359;DHT22;673;48.098;14.422;2023-08-08T12:21:04;23.20;64.40
1359;DHT22;673;48.098;14.422;2023-08-08T12:23:33;23.30;67.60
1359;DHT22;673;48.098;14.422;2023-08-08T12:26:02;23.40;64.90
1359;DHT22;673;48.098;14.422;2023-08-08T12:28:32;23.10;59.60
1359;DHT22;673;48.098;14.422;2023-08-08T12:30:59;22.70;63.90
1359;DHT22;673;48.098;14.422;2023-08-08T12:33:26;22.70;60.30
1359;DHT22;673;48.098;14.422;2023-08-08T12:35:53;23.00;70.10
1359;DHT22;673;48.098;14.422;2023-08-08T12:38:20;23.20;65.80
1359;DHT22;673;48.098;14.422;2023-08-08T12:40:48;23.20;63.70
1359;DHT22;673;48.098;14.422;2023-08-08T12:43:15;23.20;65.00
1359;DHT22;673;48.098;14.422;2023-08-08T12:45:44;23.30;58.60
1359;DHT22;673;48.098;14.422;2023-08-08T12:48:11;23.10;59.60
1359;DHT22;673;48.098;14.422;2023-08-08T12:50:38;23.10;63.30
1359;DHT22;673;48.098;14.422;2023-08-08T12:53:06;23.20;61.40
1359;DHT22;673;48.098;14.422;2023-08-08T12:55:33;23.20;60.70
1359;DHT22;673;48.098;14.422;2023-08-08T12:58:01;23.40;62.70
1359;DHT22;673;48.098;14.422;2023-08-08T13:00:28;23.50;63.50
1359;DHT22;673;48.098;14.422;2023-08-08T13:02:56;23.60;70.10
1359;DHT22;673;48.098;14.422;2023-08-08T13:05:23;23.20;59.70
1359;DHT22;673;48.098;14.422;2023-08-08T13:07:50;23.00;57.00
1359;DHT22;673;48.098;14.422;2023-08-08T13:10:17;23.10;58.40
1359;DHT22;673;48.098;14.422;2023-08-08T13:12:45;23.00;58.20
1359;DHT22;673;48.098;14.422;2023-08-08T13:15:12;22.90;58.60
1359;DHT22;673;48.098;14.422;2023-08-08T13:17:39;22.70;57.80
1359;DHT22;673;48.098;14.422;2023-08-08T13:20:09;22.80;59.50
1359;DHT22;673;48.098;14.422;2023-08-08T13:22:37;22.90;57.00
1359;DHT22;673;48.098;14.422;2023-08-08T13:25:06;22.70;55.90
1359;DHT22;673;48.098;14.422;2023-08-08T13:27:33;22.70;57.40
1359;DHT22;673;48.098;14.422;2023-08-08T13:30:00;22.70;55.00
1359;DHT22;673;48.098;14.422;2023-08-08T13:32:27;22.70;56.20
1359;DHT22;673;48.098;14.422;2023-08-08T13:34:55;23.10;59.40
1359;DHT22;673;48.098;14.422;2023-08-08T13:37:23;23.00;57.20
1359;DHT22;673;48.098;14.422;2023-08-08T13:39:50;23.30;61.10
1359;DHT22;673;48.098;14.422;2023-08-08T13:42:17;23.20;58.00
1359;DHT22;673;48.098;14.422;2023-08-08T13:44:44;23.30;55.30
1359;DHT22;673;48.098;14.422;2023-08-08T13:47:10;23.30;56.10
1359;DHT22;673;48.098;14.422;2023-08-08T13:49:37;23.30;57.80
1359;DHT22;673;48.098;14.422;2023-08-08T13:52:05;23.10;54.80
1359;DHT22;673;48.098;14.422;2023-08-08T13:54:33;23.40;57.60
1359;DHT22;673;48.098;14.422;2023-08-08T13:57:00;23.30;58.00
1359;DHT22;673;48.098;14.422;2023-08-08T13:59:27;22.90;53.60
1359;DHT22;673;48.098;14.422;2023-08-08T14:01:54;23.00;50.90
1359;DHT22;673;48.098;14.422;2023-08-08T14:04:21;22.90;51.10
1359;DHT22;673;48.098;14.422;2023-08-08T14:06:48;22.90;54.20
1359;DHT22;673;48.098;14.422;2023-08-08T14:09:15;23.10;60.00
1359;DHT22;673;48.098;14.422;2023-08-08T14:11:43;23.20;56.80
1359;DHT22;673;48.098;14.422;2023-08-08T14:14:10;23.00;55.20
1359;DHT22;673;48.098;14.422;2023-08-08T14:16:37;23.00;55.00
1359;DHT22;673;48.098;14.422;2023-08-08T14:19:04;23.20;52.90
1359;DHT22;673;48.098;14.422;2023-08-08T14:21:31;23.30;54.20
1359;DHT22;673;48.098;14.422;2023-08-08T14:23:58;23.30;53.60
1359;DHT22;673;48.098;14.422;2023-08-08T14:26:26;23.20;51.90
1359;DHT22;673;48.098;14.422;2023-08-08T14:28:54;23.30;54.60
1359;DHT22;673;48.098;14.422;2023-08-08T14:31:21;23.40;54.60
1359;DHT22;673;48.098;14.422;2023-08-08T14:33:48;23.30;54.80
1359;DHT22;673;48.098;14.422;2023-08-08T14:36:15;23.30;54.80
1359;DHT22;673;48.098;14.422;2023-08-08T14:38:42;23.20;53.80
1359;DHT22;673;48.098;14.422;2023-08-08T14:41:09;22.90;52.70
1359;DHT22;673;48.098;14.422;2023-08-08T14:43:36;22.80;56.80
1359;DHT22;673;48.098;14.422;2023-08-08T14:46:04;22.90;56.10
1359;DHT22;673;48.098;14.422;2023-08-08T14:48:31;23.10;58.20
1359;DHT22;673;48.098;14.422;2023-08-08T14:51:01;22.80;52.70
1359;DHT22;673;48.098;14.422;2023-08-08T14:53:28;22.60;53.90
1359;DHT22;673;48.098;14.422;2023-08-08T14:55:55;22.60;56.00
1359;DHT22;673;48.098;14.422;2023-08-08T14:58:23;22.70;58.50
1359;DHT22;673;48.098;14.422;2023-08-08T15:00:50;22.80;57.60
1359;DHT22;673;48.098;14.422;2023-08-08T15:03:18;23.10;57.70
1359;DHT22;673;48.098;14.422;2023-08-08T15:05:45;23.10;58.30
1359;DHT22;673;48.098;14.422;2023-08-08T15:08:14;22.90;56.70
1359;DHT22;673;48.098;14.422;2023-08-08T15:10:41;22.80;55.50
1359;DHT22;673;48.098;14.422;2023-08-08T15:13:08;23.00;59.30
1359;DHT22;673;48.098;14.422;2023-08-08T15:15:35;22.70;58.30
1359;DHT22;673;48.098;14.422;2023-08-08T15:18:02;22.70;56.60
1359;DHT22;673;48.098;14.422;2023-08-08T15:20:30;22.50;57.60
1359;DHT22;673;48.098;14.422;2023-08-08T15:22:57;22.30;54.00
1359;DHT22;673;48.098;14.422;2023-08-08T15:25:24;22.20;57.20
1359;DHT22;673;48.098;14.422;2023-08-08T15:27:51;22.20;55.00
1359;DHT22;673;48.098;14.422;2023-08-08T15:30:18;22.00;53.70
1359;DHT22;673;48.098;14.422;2023-08-08T15:32:45;21.80;57.60
1359;DHT22;673;48.098;14.422;2023-08-08T15:35:12;21.60;61.30
1359;DHT22;673;48.098;14.422;2023-08-08T15:37:40;21.50;60.70
1359;DHT22;673;48.098;14.422;2023-08-08T15:40:08;21.60;63.80
1359;DHT22;673;48.098;14.422;2023-08-08T15:42:35;21.80;65.40
1359;DHT22;673;48.098;14.422;2023-08-08T15:45:03;21.90;64.40
1359;DHT22;673;48.098;14.422;2023-08-08T15:47:29;22.00;63.20
1359;DHT22;673;48.098;14.422;2023-08-08T15:49:56;22.10;59.20
1359;DHT22;673;48.098;14.422;2023-08-08T15:52:23;22.10;62.50
1359;DHT22;673;48.098;14.422;2023-08-08T15:54:52;22.10;59.40
1359;DHT22;673;48.098;14.422;2023-08-08T15:57:19;22.10;60.60
1359;DHT22;673;48.098;14.422;2023-08-08T15:59:46;22.20;60.40
1359;DHT22;673;48.098;14.422;2023-08-08T16:02:12;22.10;60.80
1359;DHT22;673;48.098;14.422;2023-08-08T16:04:39;22.10;62.50